M I D A S
Marine Information and Data Acquisition System
Tripno 1524 of the Zeeleeuw from 2008-07-23 06:49:50 to 2008-07-23 13:39:48
Back to CruiseResearch ActivitiesStationsMapUnderway DataData graphs

EquipmentUnitsComments
TimeDGPSUTC
LatitudeDGPSDM.mWGS84
LongitudeDGPSDM.mWGS84
SpeedMeteo Stationm/sRelative wind speed
DirectionMeteo StationdegRelative wind direction
TemperatureMeteo Stationdeg CelciusAir temperature
PressureMeteo StationPaAtmospheric pressure
HumidityMeteo Station%Relative humidity
Missing or incorrect values are displayed as -999
Metereological data collected by the RV Zeeleeuw from 2008-07-23 06:45:42 to 2008-07-23 13:44:32
Time Latitude Longitude Speed Direction Temperature Pressure Humidity
2008-07-23 06:46 51°13.631 2°55.997 -999 -999 -999 -999 -999
2008-07-23 06:47 51°13.665 2°55.881 -999 -999 -999 -999 -999
2008-07-23 06:48 51°13.706 2°55.777 -999 -999 -999 -999 -999
2008-07-23 06:49 51°13.722 2°55.736 -999 -999 -999 -999 -999
2008-07-23 06:50 51°13.716 2°55.71 -999 -999 -999 -999 -999
2008-07-23 06:51 51°13.749 2°55.707 -999 -999 -999 -999 -999
2008-07-23 06:52 51°13.832 2°55.641 -999 -999 -999 -999 -999
2008-07-23 06:53 51°13.919 2°55.572 1.4 341 18.1 102510 64
2008-07-23 06:54 51°14.022 2°55.485 1 321 18.2 102510 66
2008-07-23 06:55 51°14.127 2°55.403 0.9 332 18.2 102510 67
2008-07-23 06:56 51°14.239 2°55.286 2 325 18.3 102510 67
2008-07-23 06:57 51°14.354 2°55.083 5.4 325 18.3 102510 67
2008-07-23 06:58 51°14.462 2°54.815 5.5 315 18.3 102500 67
2008-07-23 06:59 51°14.554 2°54.516 5.3 25 18.3 102500 68
2008-07-23 07:00 51°14.652 2°54.22 5.5 28 18.3 102510 62
2008-07-23 07:01 51°14.75 2°53.924 6.6 315 18.3 102510 62
2008-07-23 07:02 51°14.844 2°53.633 5.5 317 18.3 102510 62
2008-07-23 07:03 51°14.903 2°53.321 7.6 26 18.3 102510 63
2008-07-23 07:04 51°14.952 2°52.998 6.7 317 18.4 102510 63
2008-07-23 07:05 51°15.001 2°52.674 5.7 317 18.4 102510 63
2008-07-23 07:06 51°15.036 2°52.345 6.2 318 18.4 102510 63
2008-07-23 07:07 51°15.063 2°52.011 6.5 318 18.4 102510 63
2008-07-23 07:08 51°15.096 2°51.676 7.7 318 18.4 102510 64
2008-07-23 07:09 51°15.159 2°51.357 5.7 319 18.4 102520 64
2008-07-23 07:10 51°15.294 2°51.105 4.6 316 18.4 102520 65
2008-07-23 07:11 51°15.423 2°50.979 2.7 30 18.4 102520 65
2008-07-23 07:12 51°15.522 2°50.887 1.5 248 18.4 102530 64
2008-07-23 07:13 51°15.612 2°50.796 1.9 242 18.5 102530 64
2008-07-23 07:14 51°15.7 2°50.704 2.4 22 18.5 102530 64
2008-07-23 07:15 51°15.824 2°50.58 4.4 317 18.6 102520 64
2008-07-23 07:16 51°15.995 2°50.415 5.3 318 18.5 102520 64
2008-07-23 07:17 51°16.169 2°50.246 4.3 38 18.4 102520 65
2008-07-23 07:18 51°16.343 2°50.072 4.6 27 18.3 102520 64
2008-07-23 07:19 51°16.52 2°49.896 4.8 318 18.3 102520 65
2008-07-23 07:20 51°16.689 2°49.721 5.4 318 18.2 102520 65
2008-07-23 07:21 51°16.864 2°49.546 4.7 317 18.2 102520 66
2008-07-23 07:22 51°17.035 2°49.383 4.9 316 18.1 102520 66
2008-07-23 07:23 51°17.213 2°49.221 4.4 317 18.2 102520 66
2008-07-23 07:24 51°17.394 2°49.07 2.6 318 18.2 102520 67
2008-07-23 07:25 51°17.575 2°48.919 4.1 29 18.1 102530 66
2008-07-23 07:26 51°17.754 2°48.758 4.4 319 18.1 102520 66
2008-07-23 07:27 51°17.927 2°48.582 5.1 317 18.2 102520 67
2008-07-23 07:28 51°18.107 2°48.405 5.6 318 18.2 102530 67
2008-07-23 07:29 51°18.28 2°48.233 5.5 316 18.2 102530 67
2008-07-23 07:30 51°18.458 2°48.06 5.4 317 18.1 102520 67
2008-07-23 07:31 51°18.636 2°47.891 5.2 316 18.1 102520 67
2008-07-23 07:32 51°18.813 2°47.725 4.8 21 18 102520 67
2008-07-23 07:33 51°18.99 2°47.561 4.8 319 18 102520 68
2008-07-23 07:34 51°19.183 2°47.452 4.3 318 18 102530 68
2008-07-23 07:35 51°19.38 2°47.35 4.4 315 18 102530 67
2008-07-23 07:36 51°19.575 2°47.23 3.9 318 18 102530 67
2008-07-23 07:37 51°19.744 2°47.048 4.6 316 18.1 102530 67
2008-07-23 07:38 51°19.906 2°46.848 4.9 315 18.1 102530 67
2008-07-23 07:39 51°20.071 2°46.647 5.7 318 18.1 102540 67
2008-07-23 07:40 51°20.237 2°46.442 4.9 318 18.1 102530 67
2008-07-23 07:41 51°20.404 2°46.239 4.8 316 18.1 102520 67
2008-07-23 07:42 51°20.579 2°46.055 5.2 319 18.1 102540 67
2008-07-23 07:43 51°20.76 2°45.887 4.8 315 18.2 102530 67
2008-07-23 07:44 51°20.942 2°45.714 5.3 315 18.1 102540 67
2008-07-23 07:45 51°21.12 2°45.534 5.6 315 18.1 102530 67
2008-07-23 07:46 51°21.301 2°45.361 4.8 315 18.1 102540 67
2008-07-23 07:47 51°21.479 2°45.201 6.2 29 18.1 102540 67
2008-07-23 07:48 51°21.66 2°45.036 6.4 318 18.1 102540 67
2008-07-23 07:49 51°21.838 2°44.864 6 318 18.1 102540 67
2008-07-23 07:50 51°22.018 2°44.7 5 318 18.1 102540 67
2008-07-23 07:51 51°22.199 2°44.538 5.6 316 18.2 102540 67
2008-07-23 07:52 51°22.38 2°44.374 5.6 316 18.1 102540 67
2008-07-23 07:53 51°22.562 2°44.203 6 320 18.2 102540 67
2008-07-23 07:54 51°22.739 2°44.041 6.2 319 18.2 102540 67
2008-07-23 07:55 51°22.919 2°43.87 5.8 319 18.2 102540 67
2008-07-23 07:56 51°23.092 2°43.699 5.3 317 18.2 102540 67
2008-07-23 07:57 51°23.263 2°43.501 5.3 317 18.2 102550 66
2008-07-23 07:58 51°23.414 2°43.273 6.3 316 18.2 102540 66
2008-07-23 07:59 51°23.571 2°43.048 6.1 321 18.3 102540 66
2008-07-23 08:00 51°23.731 2°42.821 7 318 18.3 102540 67
2008-07-23 08:01 51°23.884 2°42.6 7.1 320 18.3 102540 67
2008-07-23 08:02 51°24.045 2°42.378 5.6 318 18.3 102540 67
2008-07-23 08:03 51°24.207 2°42.173 6.5 320 18.3 102540 68
2008-07-23 08:04 51°24.378 2°41.971 6.5 322 18.4 102540 68
2008-07-23 08:05 51°24.54 2°41.77 5.6 323 18.3 102530 68
2008-07-23 08:06 51°24.709 2°41.566 5.8 322 18.3 102530 68
2008-07-23 08:07 51°24.872 2°41.37 6.4 321 18.2 102530 68
2008-07-23 08:08 51°25.038 2°41.173 5.6 320 18.2 102540 68
2008-07-23 08:09 51°25.216 2°40.999 6.8 322 18.2 102540 68
2008-07-23 08:10 51°25.393 2°40.836 5.8 320 18.2 102540 66
2008-07-23 08:11 51°25.573 2°40.665 6.5 319 18.2 102540 67
2008-07-23 08:12 51°25.746 2°40.497 6.6 318 18.1 102530 67
2008-07-23 08:13 51°25.926 2°40.328 5.4 319 18.1 102530 67
2008-07-23 08:14 51°26.087 2°40.136 5.5 320 18.1 102530 67
2008-07-23 08:15 51°26.235 2°39.885 5.8 320 18.1 102530 66
2008-07-23 08:16 51°26.373 2°39.631 6.7 317 18.1 102530 66
2008-07-23 08:17 51°26.511 2°39.374 6.2 317 18.1 102530 65
2008-07-23 08:18 51°26.653 2°39.121 6.7 318 18.2 102530 65
2008-07-23 08:19 51°26.795 2°38.867 6.8 320 18.3 102530 66
2008-07-23 08:20 51°26.934 2°38.612 6.8 319 18.3 102520 66
2008-07-23 08:21 51°27.072 2°38.356 6.6 320 18.3 102510 67
2008-07-23 08:22 51°27.217 2°38.11 6.8 320 18.3 102520 68
2008-07-23 08:23 51°27.363 2°37.863 6.6 322 18.3 102520 69
2008-07-23 08:24 51°27.507 2°37.612 6.9 321 18.4 102520 70
2008-07-23 08:25 51°27.648 2°37.359 6.1 321 18.3 102510 69
2008-07-23 08:26 51°27.783 2°37.098 6 319 18.3 102520 70
2008-07-23 08:27 51°27.947 2°36.896 6.6 322 18.3 102530 70
2008-07-23 08:28 51°28.129 2°36.738 5.5 321 18.3 102520 70
2008-07-23 08:29 51°28.332 2°36.672 5.2 321 18.3 102520 71
2008-07-23 08:30 51°28.532 2°36.62 4.8 323 18.3 102520 71
2008-07-23 08:31 51°28.732 2°36.644 4.9 325 18.3 102530 72
2008-07-23 08:32 51°28.93 2°36.691 4.9 327 18.2 102520 72
2008-07-23 08:33 51°29.124 2°36.766 4.7 327 18.2 102530 72
2008-07-23 08:34 51°29.316 2°36.854 4.9 327 18.2 102520 73
2008-07-23 08:35 51°29.508 2°36.935 4 327 18.2 102520 73
2008-07-23 08:36 51°29.693 2°37.043 4.8 329 18.2 102530 73
2008-07-23 08:37 51°29.882 2°37.151 4.3 327 18.2 102520 73
2008-07-23 08:38 51°30.068 2°37.254 4.6 330 18.2 102540 74
2008-07-23 08:39 51°30.255 2°37.356 4.1 329 18.2 102520 74
2008-07-23 08:40 51°30.442 2°37.456 4.8 327 18.2 102530 74
2008-07-23 08:41 51°30.632 2°37.546 4.4 327 18.2 102530 75
2008-07-23 08:42 51°30.823 2°37.625 4.6 328 18.2 102520 75
2008-07-23 08:43 51°31.014 2°37.698 3.9 328 18.2 102530 76
2008-07-23 08:44 51°31.205 2°37.766 4 326 18.3 102530 77
2008-07-23 08:45 51°31.397 2°37.852 4.6 328 18.3 102530 78
2008-07-23 08:46 51°31.584 2°37.931 4.6 328 18.3 102520 79
2008-07-23 08:47 51°31.778 2°38.019 3.9 330 18.3 102530 79
2008-07-23 08:48 51°31.964 2°38.106 4.4 326 18.3 102530 79
2008-07-23 08:49 51°32.153 2°38.197 3.9 325 18.3 102530 79
2008-07-23 08:50 51°32.343 2°38.286 4.3 325 18.3 102530 79
2008-07-23 08:51 51°32.533 2°38.376 4.5 326 18.3 102530 79
2008-07-23 08:52 51°32.723 2°38.483 5 326 18.3 102530 79
2008-07-23 08:53 51°32.905 2°38.59 4.2 328 18.3 102530 79
2008-07-23 08:54 51°33.09 2°38.71 4.2 325 18.3 102530 80
2008-07-23 08:55 51°33.267 2°38.835 3.8 322 18.2 102520 79
2008-07-23 08:56 51°33.453 2°38.954 3.9 324 18.2 102520 79
2008-07-23 08:57 51°33.632 2°39.075 3.9 324 18.2 102520 80
2008-07-23 08:58 51°33.817 2°39.197 3.9 326 18.2 102530 80
2008-07-23 08:59 51°33.997 2°39.33 4 327 18.2 102530 80
2008-07-23 09:00 51°34.178 2°39.461 4.1 329 18.3 102540 80
2008-07-23 09:01 51°34.358 2°39.595 4.9 327 18.3 102530 79
2008-07-23 09:02 51°34.541 2°39.714 4.1 325 18.3 102530 79
2008-07-23 09:03 51°34.729 2°39.82 4.8 329 18.3 102530 79
2008-07-23 09:04 51°34.915 2°39.93 4.1 326 18.3 102530 79
2008-07-23 09:05 51°35.099 2°40.037 4.6 327 18.4 102530 79
2008-07-23 09:06 51°35.286 2°40.16 4.5 327 18.3 102530 79
2008-07-23 09:07 51°35.47 2°40.265 4.3 326 18.3 102530 79
2008-07-23 09:08 51°35.665 2°40.344 4.8 327 18.4 102530 79
2008-07-23 09:09 51°35.849 2°40.433 4.3 327 18.3 102520 79
2008-07-23 09:10 51°36.042 2°40.519 4 327 18.3 102530 80
2008-07-23 09:11 51°36.229 2°40.598 4.1 325 18.3 102530 79
2008-07-23 09:12 51°36.422 2°40.671 3.4 327 18.3 102520 80
2008-07-23 09:13 51°36.606 2°40.755 3 327 18.3 102530 80
2008-07-23 09:14 51°36.797 2°40.825 4.1 323 18.4 102530 81
2008-07-23 09:15 51°36.985 2°40.876 3.7 324 18.4 102520 81
2008-07-23 09:16 51°37.18 2°40.925 4.2 324 18.3 102530 82
2008-07-23 09:17 51°37.371 2°40.971 4.2 324 18.3 102530 82
2008-07-23 09:18 51°37.561 2°41.016 4.2 327 18.2 102540 82
2008-07-23 09:19 51°37.751 2°41.063 3.8 323 18.2 102530 82
2008-07-23 09:20 51°37.942 2°41.101 4.4 326 18.1 102530 83
2008-07-23 09:21 51°38.133 2°41.139 4 323 18.1 102530 83
2008-07-23 09:22 51°38.322 2°41.169 3.7 325 18.1 102530 83
2008-07-23 09:23 51°38.517 2°41.213 3.8 324 18.1 102530 84
2008-07-23 09:24 51°38.708 2°41.254 4 326 18.1 102540 84
2008-07-23 09:25 51°38.899 2°41.286 4.4 328 18.2 102540 84
2008-07-23 09:26 51°39.057 2°41.413 4.1 340 18.2 102540 84
2008-07-23 09:27 51°39.093 2°41.696 5.3 345 18.1 102530 83
2008-07-23 09:28 51°39.081 2°42 6.4 343 18 102520 84
2008-07-23 09:29 51°39.051 2°42.308 6.2 342 17.9 102530 85
2008-07-23 09:30 51°38.988 2°42.601 7.1 338 17.9 102530 86
2008-07-23 09:31 51°38.832 2°42.817 8.2 337 17.9 102520 85
2008-07-23 09:32 51°38.631 2°42.919 8.7 333 17.9 102530 84
2008-07-23 09:33 51°38.414 2°42.878 8.2 333 17.9 102520 84
2008-07-23 09:34 51°38.199 2°42.831 8 332 18 102530 84
2008-07-23 09:35 51°37.979 2°42.754 9.1 331 18 102520 83
2008-07-23 09:36 51°37.767 2°42.678 8.8 332 18 102520 83
2008-07-23 09:37 51°37.549 2°42.594 7.6 331 18 102520 83
2008-07-23 09:38 51°37.335 2°42.523 8.4 331 18 102520 83
2008-07-23 09:39 51°37.113 2°42.447 8 330 18 102530 83
2008-07-23 09:40 51°36.9 2°42.361 8.3 332 18 102520 83
2008-07-23 09:41 51°36.678 2°42.273 8.1 331 18 102520 83
2008-07-23 09:42 51°36.46 2°42.199 9.2 331 18 102520 83
2008-07-23 09:43 51°36.241 2°42.126 8.6 330 18 102520 82
2008-07-23 09:44 51°36.023 2°42.045 8.1 330 18 102530 82
2008-07-23 09:45 51°35.805 2°41.961 8.7 330 18 102530 82
2008-07-23 09:46 51°35.587 2°41.877 9 331 18.1 102520 82
2008-07-23 09:47 51°35.368 2°41.791 8.3 332 18 102520 82
2008-07-23 09:48 51°35.148 2°41.698 8.5 330 18 102520 82
2008-07-23 09:49 51°34.927 2°41.619 9.1 330 18 102520 81
2008-07-23 09:50 51°34.706 2°41.532 9.4 329 18 102530 82
2008-07-23 09:51 51°34.486 2°41.446 8.1 332 18.1 102520 81
2008-07-23 09:52 51°34.264 2°41.367 8.1 332 18.1 102520 81
2008-07-23 09:53 51°34.086 2°41.481 8 339 18.1 102530 81
2008-07-23 09:54 51°33.919 2°41.682 7.6 339 18.1 102530 81
2008-07-23 09:55 51°33.743 2°41.865 7.8 339 18.1 102520 81
2008-07-23 09:56 51°33.541 2°41.974 7.9 333 18.2 102530 81
2008-07-23 09:57 51°33.335 2°41.85 8.1 327 18.1 102530 80
2008-07-23 09:58 51°33.147 2°41.64 9.3 326 18.2 102540 80
2008-07-23 09:59 51°32.967 2°41.411 8.4 326 18.2 102540 80
2008-07-23 10:00 51°32.79 2°41.179 9.1 327 18.2 102540 80
2008-07-23 10:01 51°32.608 2°40.962 8.2 331 18.2 102530 79
2008-07-23 10:02 51°32.412 2°41.009 7.5 341 18.2 102540 79
2008-07-23 10:03 51°32.403 2°41.244 3.1 343 18.1 102530 78
2008-07-23 10:04 51°32.564 2°41.333 3.5 334 18 102540 77
2008-07-23 10:05 51°32.738 2°41.395 3.7 333 18.1 102550 78
2008-07-23 10:06 51°32.908 2°41.478 3.9 333 18.2 102550 79
2008-07-23 10:07 51°33.075 2°41.572 4.1 333 18.3 102550 78
2008-07-23 10:08 51°33.243 2°41.654 3.9 332 18.3 102550 78
2008-07-23 10:09 51°33.41 2°41.741 4.8 333 18.4 102550 78
2008-07-23 10:10 51°33.579 2°41.823 3.9 335 18.4 102550 78
2008-07-23 10:11 51°33.747 2°41.904 4.1 334 18.5 102550 78
2008-07-23 10:12 51°33.913 2°41.995 4.5 335 18.5 102550 78
2008-07-23 10:13 51°34.082 2°42.074 4.6 333 18.5 102540 78
2008-07-23 10:14 51°34.248 2°42.16 4.7 338 18.5 102540 78
2008-07-23 10:15 51°34.415 2°42.25 3.9 333 18.5 102550 79
2008-07-23 10:16 51°34.58 2°42.338 4.5 336 18.5 102550 79
2008-07-23 10:17 51°34.746 2°42.425 3.9 335 18.4 102540 79
2008-07-23 10:18 51°34.911 2°42.505 4.6 334 18.5 102550 79
2008-07-23 10:19 51°35.075 2°42.594 4.1 339 18.4 102540 79
2008-07-23 10:20 51°35.24 2°42.681 4.3 338 18.4 102550 80
2008-07-23 10:21 51°35.407 2°42.756 5 338 18.4 102540 81
2008-07-23 10:22 51°35.575 2°42.829 4.4 339 18.3 102540 82
2008-07-23 10:23 51°35.742 2°42.905 4.9 340 18.2 102530 81
2008-07-23 10:24 51°35.906 2°42.989 4.5 338 18.2 102550 81
2008-07-23 10:25 51°36.071 2°43.083 4.7 339 18.1 102540 82
2008-07-23 10:26 51°36.232 2°43.178 4.9 339 18.1 102550 82
2008-07-23 10:27 51°36.392 2°43.28 4.7 337 18.1 102540 82
2008-07-23 10:28 51°36.553 2°43.387 5.3 338 18.1 102540 82
2008-07-23 10:29 51°36.713 2°43.486 4.9 337 18.1 102540 82
2008-07-23 10:30 51°36.874 2°43.585 4.7 337 18.1 102540 82
2008-07-23 10:31 51°37.035 2°43.683 4.4 338 18 102540 81
2008-07-23 10:32 51°37.196 2°43.786 4.4 339 18 102540 81
2008-07-23 10:33 51°37.36 2°43.877 4.9 338 18.1 102540 82
2008-07-23 10:34 51°37.521 2°43.972 4.1 340 18 102540 82
2008-07-23 10:35 51°37.683 2°44.073 4.8 338 18 102540 82
2008-07-23 10:36 51°37.845 2°44.173 4.3 340 18.1 102540 82
2008-07-23 10:37 51°38.005 2°44.28 4.6 339 18 102540 82
2008-07-23 10:38 51°38.163 2°44.394 4.6 340 18 102540 81
2008-07-23 10:39 51°38.322 2°44.5 4.4 341 18 102540 81
2008-07-23 10:40 51°38.481 2°44.602 4.5 339 18 102540 81
2008-07-23 10:41 51°38.643 2°44.7 4.2 337 18 102540 81
2008-07-23 10:42 51°38.805 2°44.79 4.9 339 18 102540 81
2008-07-23 10:43 51°38.967 2°44.883 4.8 336 18 102540 81
2008-07-23 10:44 51°39.129 2°44.976 4.2 337 18 102540 81
2008-07-23 10:45 51°39.29 2°45.07 4.4 337 18 102540 81
2008-07-23 10:46 51°39.451 2°45.166 4.8 338 18 102540 81
2008-07-23 10:47 51°39.612 2°45.263 4.4 337 18 102540 81
2008-07-23 10:48 51°39.775 2°45.354 4.2 338 18 102540 81
2008-07-23 10:49 51°39.935 2°45.448 4.1 335 18.1 102540 81
2008-07-23 10:50 51°40.095 2°45.547 5.1 337 18.1 102540 81
2008-07-23 10:51 51°40.254 2°45.648 4.5 337 18.1 102530 81
2008-07-23 10:52 51°40.413 2°45.752 4.2 335 18.1 102540 80
2008-07-23 10:53 51°40.569 2°45.864 4 338 18.1 102540 80
2008-07-23 10:54 51°40.728 2°45.973 4.4 337 18.1 102530 81
2008-07-23 10:55 51°40.888 2°46.077 3.8 337 18.2 102530 81
2008-07-23 10:56 51°41.045 2°46.188 4.7 337 18.2 102540 81
2008-07-23 10:57 51°41.205 2°46.292 4.1 333 18.2 102540 81
2008-07-23 10:58 51°41.362 2°46.408 4.5 335 18.2 102540 81
2008-07-23 10:59 51°41.52 2°46.519 4.2 334 18.2 102530 81
2008-07-23 11:00 51°41.681 2°46.621 1.9 334 18.3 102530 81
2008-07-23 11:01 51°41.835 2°46.737 4.2 336 18.3 102530 80
2008-07-23 11:02 51°41.991 2°46.855 4.5 334 18.4 102530 80
2008-07-23 11:03 51°42.064 2°47.094 6 343 18.3 102530 80
2008-07-23 11:04 51°42.007 2°47.348 4.8 348 18.3 102530 81
2008-07-23 11:05 51°41.949 2°47.481 3.8 352 18.2 102540 81
2008-07-23 11:06 51°41.905 2°47.582 3.2 357 18 102520 81
2008-07-23 11:07 51°41.866 2°47.678 3.8 350 17.9 102530 82
2008-07-23 11:08 51°41.8 2°47.896 6.6 340 17.9 102520 83
2008-07-23 11:09 51°41.65 2°48.11 7.5 337 18 102520 83
2008-07-23 11:10 51°41.454 2°48.246 7.5 336 18.1 102510 83
2008-07-23 11:11 51°41.256 2°48.374 8.3 337 18.1 102520 83
2008-07-23 11:12 51°41.049 2°48.479 8.1 336 18.1 102520 83
2008-07-23 11:13 51°40.83 2°48.496 7.9 331 18.1 102510 83
2008-07-23 11:14 51°40.604 2°48.457 8.4 332 18.1 102520 83
2008-07-23 11:15 51°40.38 2°48.418 8.1 333 18.1 102510 83
2008-07-23 11:16 51°40.158 2°48.354 8.5 334 18.1 102520 82
2008-07-23 11:17 51°39.93 2°48.284 8 332 18.1 102520 82
2008-07-23 11:18 51°39.705 2°48.221 8.2 333 18.1 102520 82
2008-07-23 11:19 51°39.48 2°48.15 7.8 332 18.1 102520 82
2008-07-23 11:20 51°39.255 2°48.08 7.5 334 18.1 102520 80
2008-07-23 11:21 51°39.031 2°48.007 7.2 331 18.1 102510 80
2008-07-23 11:22 51°38.806 2°47.936 8.2 333 18.1 102510 80
2008-07-23 11:23 51°38.581 2°47.864 7.3 330 18.1 102500 80
2008-07-23 11:24 51°38.357 2°47.784 8.3 332 18.1 102510 80
2008-07-23 11:25 51°38.132 2°47.698 8 332 18.1 102500 80
2008-07-23 11:26 51°37.909 2°47.618 7.7 331 18.1 102510 79
2008-07-23 11:27 51°37.688 2°47.535 7.5 332 18.1 102500 79
2008-07-23 11:28 51°37.465 2°47.458 7 334 18.1 102510 78
2008-07-23 11:29 51°37.245 2°47.361 7.7 332 18.1 102510 78
2008-07-23 11:30 51°37.028 2°47.233 7.8 333 18.2 102500 78
2008-07-23 11:31 51°36.812 2°47.104 7.8 332 18.1 102500 78
2008-07-23 11:32 51°36.599 2°46.953 7.9 331 18.2 102500 78
2008-07-23 11:33 51°36.388 2°46.792 6.6 329 18.2 102500 78
2008-07-23 11:34 51°36.182 2°46.642 7.6 331 18.2 102500 78
2008-07-23 11:35 51°35.971 2°46.49 7.1 331 18.1 102500 78
2008-07-23 11:36 51°35.756 2°46.337 7.6 331 18.2 102500 78
2008-07-23 11:37 51°35.547 2°46.185 7 331 18.2 102510 78
2008-07-23 11:38 51°35.337 2°46.026 7.2 331 18.2 102500 78
2008-07-23 11:39 51°35.131 2°45.851 7.2 330 18.2 102500 78
2008-07-23 11:40 51°34.923 2°45.686 6.6 330 18.2 102500 78
2008-07-23 11:41 51°34.715 2°45.525 7.3 332 18.2 102500 78
2008-07-23 11:42 51°34.512 2°45.355 7.3 330 18.2 102490 78
2008-07-23 11:43 51°34.306 2°45.19 7.5 330 18.2 102500 78
2008-07-23 11:44 51°34.097 2°45.034 7.4 331 18.2 102500 78
2008-07-23 11:45 51°33.891 2°44.87 7.6 332 18.2 102500 78
2008-07-23 11:46 51°33.682 2°44.708 7.2 333 18.2 102500 79
2008-07-23 11:47 51°33.473 2°44.556 7.2 332 18.2 102500 78
2008-07-23 11:48 51°33.266 2°44.396 7.4 333 18.2 102490 79
2008-07-23 11:49 51°33.057 2°44.237 7.2 330 18.1 102500 78
2008-07-23 11:50 51°32.846 2°44.091 6.9 334 18.2 102490 78
2008-07-23 11:51 51°32.635 2°43.945 6.9 331 18.2 102490 79
2008-07-23 11:52 51°32.427 2°43.791 6.3 330 18.2 102490 78
2008-07-23 11:53 51°32.217 2°43.638 6.9 330 18.2 102490 79
2008-07-23 11:54 51°32.006 2°43.497 6.3 330 18.2 102490 79
2008-07-23 11:55 51°31.791 2°43.375 6.7 330 18.2 102490 80
2008-07-23 11:56 51°31.573 2°43.267 5.8 331 18.2 102490 80
2008-07-23 11:57 51°31.355 2°43.175 6 331 18.2 102490 80
2008-07-23 11:58 51°31.136 2°43.202 6.8 330 18.2 102490 80
2008-07-23 11:59 51°30.917 2°43.256 6.6 332 18.3 102480 80
2008-07-23 12:00 51°30.707 2°43.345 6.3 330 18.3 102480 80
2008-07-23 12:01 51°30.502 2°43.453 5.9 330 18.3 102480 80
2008-07-23 12:02 51°30.289 2°43.536 6.2 330 18.3 102490 80
2008-07-23 12:03 51°30.075 2°43.611 6 329 18.3 102480 79
2008-07-23 12:04 51°29.862 2°43.692 6.2 329 18.3 102480 79
2008-07-23 12:05 51°29.652 2°43.774 5.6 330 18.4 102480 79
2008-07-23 12:06 51°29.442 2°43.858 5.8 328 18.4 102480 78
2008-07-23 12:07 51°29.234 2°43.949 5.9 327 18.4 102470 78
2008-07-23 12:08 51°29.025 2°44.032 5.3 326 18.5 102480 78
2008-07-23 12:09 51°28.819 2°44.125 5.9 327 18.6 102470 78
2008-07-23 12:10 51°28.611 2°44.212 5.5 325 18.7 102480 78
2008-07-23 12:11 51°28.408 2°44.307 5.5 326 18.7 102470 78
2008-07-23 12:12 51°28.206 2°44.405 5.8 325 18.8 102470 79
2008-07-23 12:13 51°28 2°44.489 5.9 325 18.9 102470 79
2008-07-23 12:14 51°27.795 2°44.575 5.3 325 18.9 102480 79
2008-07-23 12:15 51°27.59 2°44.66 5.2 323 18.9 102480 79
2008-07-23 12:16 51°27.386 2°44.738 5.1 326 18.9 102470 78
2008-07-23 12:17 51°27.181 2°44.814 5.3 326 18.9 102470 77
2008-07-23 12:18 51°26.977 2°44.891 5.1 326 18.9 102470 76
2008-07-23 12:19 51°26.771 2°44.966 4.9 325 19 102480 74
2008-07-23 12:20 51°26.566 2°45.049 5.2 325 19 102470 73
2008-07-23 12:21 51°26.361 2°45.129 5.4 326 19.1 102470 72
2008-07-23 12:22 51°26.155 2°45.213 5.5 324 19.2 102470 72
2008-07-23 12:23 51°25.952 2°45.312 4.9 321 19.3 102470 72
2008-07-23 12:24 51°25.755 2°45.427 5.8 323 19.4 102460 72
2008-07-23 12:25 51°25.555 2°45.527 5 320 19.5 102470 72
2008-07-23 12:26 51°25.352 2°45.645 5.6 322 19.6 102460 72
2008-07-23 12:27 51°25.152 2°45.761 5.1 323 19.6 102470 72
2008-07-23 12:28 51°24.962 2°45.898 5.1 321 19.6 102470 72
2008-07-23 12:29 51°24.772 2°46.022 5.1 320 19.7 102460 72
2008-07-23 12:30 51°24.584 2°46.141 4.6 320 19.6 102470 72
2008-07-23 12:31 51°24.399 2°46.267 4.7 321 19.6 102460 71
2008-07-23 12:32 51°24.211 2°46.392 5.4 318 19.6 102460 70
2008-07-23 12:33 51°24.021 2°46.515 4.7 320 19.6 102470 70
2008-07-23 12:34 51°23.832 2°46.639 4.9 317 19.7 102470 70
2008-07-23 12:35 51°23.645 2°46.773 4.9 318 19.7 102460 71
2008-07-23 12:36 51°23.448 2°46.878 5.4 315 19.7 102460 71
2008-07-23 12:37 51°23.241 2°46.947 4.6 319 19.8 102460 72
2008-07-23 12:38 51°23.036 2°47.029 5.5 316 19.8 102460 72
2008-07-23 12:39 51°22.832 2°47.115 5.6 317 19.7 102460 73
2008-07-23 12:40 51°22.626 2°47.203 5.4 317 19.6 102460 72
2008-07-23 12:41 51°22.431 2°47.325 5.1 28 19.5 102450 72
2008-07-23 12:42 51°22.239 2°47.461 6.2 26 19.4 102450 71
2008-07-23 12:43 51°22.047 2°47.597 5.9 316 19.4 102460 72
2008-07-23 12:44 51°21.863 2°47.748 5.4 25 19.3 102460 72
2008-07-23 12:45 51°21.679 2°47.899 6.1 22 19.3 102460 72
2008-07-23 12:46 51°21.496 2°48.041 5.1 317 19.2 102460 72
2008-07-23 12:47 51°21.312 2°48.181 5.1 316 19.2 102450 72
2008-07-23 12:48 51°21.129 2°48.325 5 317 19.2 102460 71
2008-07-23 12:49 51°20.946 2°48.461 5.3 317 19.3 102460 71
2008-07-23 12:50 51°20.77 2°48.606 5.5 22 19.3 102460 71
2008-07-23 12:51 51°20.595 2°48.758 6.8 22 19.3 102450 71
2008-07-23 12:52 51°20.418 2°48.904 6.2 23 19.3 102450 71
2008-07-23 12:53 51°20.247 2°49.065 6 29 19.2 102450 70
2008-07-23 12:54 51°20.075 2°49.225 6.9 40 19.2 102450 69
2008-07-23 12:55 51°19.905 2°49.391 6.8 36 19.2 102450 69
2008-07-23 12:56 51°19.734 2°49.556 6.2 21 19.4 102440 71
2008-07-23 12:57 51°19.563 2°49.721 6.2 27 19.4 102440 71
2008-07-23 12:58 51°19.392 2°49.888 7.2 27 19.4 102440 71
2008-07-23 12:59 51°19.22 2°50.054 7.4 236 19.4 102430 71
2008-07-23 13:00 51°19.095 2°50.283 8.7 316 19.4 102430 71
2008-07-23 13:01 51°19.039 2°50.511 6.9 24 19.3 102420 71
2008-07-23 13:02 51°19.028 2°50.551 4 330 19.3 102440 71
2008-07-23 13:03 51°19.022 2°50.537 6 351 19.4 102430 72
2008-07-23 13:04 51°19.032 2°50.491 5.2 24 19.3 102440 72
2008-07-23 13:05 51°19.019 2°50.462 4.7 37 19.1 102440 72
2008-07-23 13:06 51°19.004 2°50.434 4.1 40 19.2 102440 74
2008-07-23 13:07 51°18.982 2°50.376 3.7 41 19.1 102430 74
2008-07-23 13:08 51°18.919 2°50.292 2.4 27 19.1 102440 74
2008-07-23 13:09 51°18.877 2°50.232 4.5 30 19.1 102440 73
2008-07-23 13:10 51°18.85 2°50.183 4.5 44 19 102440 73
2008-07-23 13:11 51°18.827 2°50.14 4.6 44 19 102440 75
2008-07-23 13:12 51°18.776 2°50.092 4.2 260 19 102440 75
2008-07-23 13:13 51°18.671 2°50.199 7 30 19.1 102420 75
2008-07-23 13:14 51°18.521 2°50.411 7.8 29 19.1 102420 74
2008-07-23 13:15 51°18.364 2°50.625 6.6 26 19.1 102420 74
2008-07-23 13:16 51°18.206 2°50.834 8.9 24 19.1 102410 74
2008-07-23 13:17 51°18.056 2°51.057 8.9 23 19.1 102410 74
2008-07-23 13:18 51°17.906 2°51.277 9.2 23 19.1 102410 74
2008-07-23 13:19 51°17.733 2°51.454 6.3 26 19.1 102410 74
2008-07-23 13:20 51°17.54 2°51.588 7.3 21 19.2 102410 74
2008-07-23 13:21 51°17.346 2°51.721 5.8 30 19.2 102410 74
2008-07-23 13:22 51°17.152 2°51.855 8.6 24 19.3 102410 75
2008-07-23 13:23 51°16.965 2°52.002 6.8 29 19.3 102410 74
2008-07-23 13:24 51°16.788 2°52.175 8.5 24 19.3 102410 75
2008-07-23 13:25 51°16.608 2°52.344 6.2 24 19.3 102410 75
2008-07-23 13:26 51°16.425 2°52.504 6.6 29 19.2 102410 74
2008-07-23 13:27 51°16.239 2°52.664 8.5 22 19.2 102410 74
2008-07-23 13:28 51°16.054 2°52.822 6.6 28 19.2 102410 75
2008-07-23 13:29 51°15.88 2°52.991 8 26 19.2 102400 75
2008-07-23 13:30 51°15.709 2°53.168 6.3 27 19.2 102400 74
2008-07-23 13:31 51°15.536 2°53.34 7.8 30 19.2 102400 74
2008-07-23 13:32 51°15.367 2°53.52 7.4 27 19.3 102400 74
2008-07-23 13:33 51°15.196 2°53.695 7.7 27 19.3 102400 74
2008-07-23 13:34 51°15.031 2°53.883 7.7 28 19.4 102400 74
2008-07-23 13:35 51°14.87 2°54.08 5.8 30 19.4 102400 75
2008-07-23 13:36 51°14.722 2°54.292 8.9 28 19.4 102400 75
2008-07-23 13:37 51°14.591 2°54.534 9.1 28 19.3 102400 74
2008-07-23 13:38 51°14.472 2°54.795 9.7 29 19.3 102390 74
2008-07-23 13:39 51°14.349 2°55.057 7.5 24 19.3 102390 73
2008-07-23 13:40 51°14.254 2°55.259 6.6 243 19.3 102400 73
2008-07-23 13:41 51°14.168 2°55.37 2.5 253 19.4 102400 74
2008-07-23 13:42 51°14.091 2°55.431 4.7 257 19.5 102410 74
2008-07-23 13:43 51°14 2°55.498 3.2 245 19.7 102410 74